sensor_id;sensor_type;location;lat;lon;timestamp;temperature;humidity
70534;SHT31;58088;51.186;17.130;2022-07-09T00:00:18;17.23;65.71
70534;SHT31;58088;51.186;17.130;2022-07-09T00:02:44;17.24;65.78
70534;SHT31;58088;51.186;17.130;2022-07-09T00:05:10;17.26;65.77
70534;SHT31;58088;51.186;17.130;2022-07-09T00:07:39;17.25;65.92
70534;SHT31;58088;51.186;17.130;2022-07-09T00:10:06;17.25;65.95
70534;SHT31;58088;51.186;17.130;2022-07-09T00:12:33;17.24;66.04
70534;SHT31;58088;51.186;17.130;2022-07-09T00:14:59;17.24;66.06
70534;SHT31;58088;51.186;17.130;2022-07-09T00:17:25;17.23;66.09
70534;SHT31;58088;51.186;17.130;2022-07-09T00:19:51;17.21;66.18
70534;SHT31;58088;51.186;17.130;2022-07-09T00:22:18;17.21;66.23
70534;SHT31;58088;51.186;17.130;2022-07-09T00:24:44;17.18;66.30
70534;SHT31;58088;51.186;17.130;2022-07-09T00:27:10;17.16;66.36
70534;SHT31;58088;51.186;17.130;2022-07-09T00:29:36;17.15;66.40
70534;SHT31;58088;51.186;17.130;2022-07-09T00:32:02;17.11;66.46
70534;SHT31;58088;51.186;17.130;2022-07-09T00:34:29;17.08;66.58
70534;SHT31;58088;51.186;17.130;2022-07-09T00:36:55;17.05;66.66
70534;SHT31;58088;51.186;17.130;2022-07-09T00:39:21;17.02;66.75
70534;SHT31;58088;51.186;17.130;2022-07-09T00:41:47;17.00;66.88
70534;SHT31;58088;51.186;17.130;2022-07-09T00:44:13;17.00;66.90
70534;SHT31;58088;51.186;17.130;2022-07-09T00:46:39;16.97;66.90
70534;SHT31;58088;51.186;17.130;2022-07-09T00:49:06;16.95;66.97
70534;SHT31;58088;51.186;17.130;2022-07-09T00:51:32;16.93;67.03
70534;SHT31;58088;51.186;17.130;2022-07-09T00:53:58;16.91;67.15
70534;SHT31;58088;51.186;17.130;2022-07-09T00:56:27;16.90;67.23
70534;SHT31;58088;51.186;17.130;2022-07-09T00:58:55;16.89;67.29
70534;SHT31;58088;51.186;17.130;2022-07-09T01:01:22;16.88;67.34
70534;SHT31;58088;51.186;17.130;2022-07-09T01:03:48;16.87;67.32
70534;SHT31;58088;51.186;17.130;2022-07-09T01:06:14;16.86;67.36
70534;SHT31;58088;51.186;17.130;2022-07-09T01:08:41;16.82;67.49
70534;SHT31;58088;51.186;17.130;2022-07-09T01:11:10;16.80;67.53
70534;SHT31;58088;51.186;17.130;2022-07-09T01:13:37;16.76;67.56
70534;SHT31;58088;51.186;17.130;2022-07-09T01:16:03;16.73;67.67
70534;SHT31;58088;51.186;17.130;2022-07-09T01:18:36;16.69;67.77
70534;SHT31;58088;51.186;17.130;2022-07-09T01:21:03;16.62;67.96
70534;SHT31;58088;51.186;17.130;2022-07-09T01:23:31;16.57;68.05
70534;SHT31;58088;51.186;17.130;2022-07-09T01:25:58;16.53;68.07
70534;SHT31;58088;51.186;17.130;2022-07-09T01:28:26;16.50;68.19
70534;SHT31;58088;51.186;17.130;2022-07-09T01:30:52;16.48;68.21
70534;SHT31;58088;51.186;17.130;2022-07-09T01:33:18;16.42;68.28
70534;SHT31;58088;51.186;17.130;2022-07-09T01:35:45;16.37;68.38
70534;SHT31;58088;51.186;17.130;2022-07-09T01:38:11;16.32;68.46
70534;SHT31;58088;51.186;17.130;2022-07-09T01:40:37;16.28;68.54
70534;SHT31;58088;51.186;17.130;2022-07-09T01:43:03;16.24;68.68
70534;SHT31;58088;51.186;17.130;2022-07-09T01:45:29;16.20;68.74
70534;SHT31;58088;51.186;17.130;2022-07-09T01:47:55;16.16;68.87
70534;SHT31;58088;51.186;17.130;2022-07-09T01:50:21;16.11;68.98
70534;SHT31;58088;51.186;17.130;2022-07-09T01:52:47;16.06;69.11
70534;SHT31;58088;51.186;17.130;2022-07-09T01:55:14;16.02;69.23
70534;SHT31;58088;51.186;17.130;2022-07-09T01:57:40;15.98;69.29
70534;SHT31;58088;51.186;17.130;2022-07-09T02:00:06;15.94;69.37
70534;SHT31;58088;51.186;17.130;2022-07-09T02:02:39;15.90;69.52
70534;SHT31;58088;51.186;17.130;2022-07-09T02:05:06;15.85;69.63
70534;SHT31;58088;51.186;17.130;2022-07-09T02:07:33;15.81;69.74
70534;SHT31;58088;51.186;17.130;2022-07-09T02:09:59;15.78;70.00
70534;SHT31;58088;51.186;17.130;2022-07-09T02:12:25;15.74;70.15
70534;SHT31;58088;51.186;17.130;2022-07-09T02:14:51;15.75;70.18
70534;SHT31;58088;51.186;17.130;2022-07-09T02:17:17;15.78;70.27
70534;SHT31;58088;51.186;17.130;2022-07-09T02:19:43;15.80;70.40
70534;SHT31;58088;51.186;17.130;2022-07-09T02:22:10;15.84;70.40
70534;SHT31;58088;51.186;17.130;2022-07-09T02:24:36;15.86;70.53
70534;SHT31;58088;51.186;17.130;2022-07-09T02:27:05;15.89;70.52
70534;SHT31;58088;51.186;17.130;2022-07-09T02:29:32;15.90;70.74
70534;SHT31;58088;51.186;17.130;2022-07-09T02:31:58;15.94;70.81
70534;SHT31;58088;51.186;17.130;2022-07-09T02:34:24;15.96;70.80
70534;SHT31;58088;51.186;17.130;2022-07-09T02:36:51;16.01;70.79
70534;SHT31;58088;51.186;17.130;2022-07-09T02:39:18;16.04;70.97
70534;SHT31;58088;51.186;17.130;2022-07-09T02:41:44;16.10;70.93
70534;SHT31;58088;51.186;17.130;2022-07-09T02:44:10;16.12;70.82
70534;SHT31;58088;51.186;17.130;2022-07-09T02:46:36;16.17;70.79
70534;SHT31;58088;51.186;17.130;2022-07-09T02:49:02;16.19;70.95
70534;SHT31;58088;51.186;17.130;2022-07-09T02:51:29;16.21;70.89
70534;SHT31;58088;51.186;17.130;2022-07-09T02:53:56;16.25;70.86
70534;SHT31;58088;51.186;17.130;2022-07-09T02:56:22;16.28;70.89
70534;SHT31;58088;51.186;17.130;2022-07-09T02:58:48;16.28;70.91
70534;SHT31;58088;51.186;17.130;2022-07-09T03:01:14;16.29;70.88
70534;SHT31;58088;51.186;17.130;2022-07-09T03:03:40;16.31;70.71
70534;SHT31;58088;51.186;17.130;2022-07-09T03:06:06;16.33;70.92
70534;SHT31;58088;51.186;17.130;2022-07-09T03:08:34;16.35;70.95
70534;SHT31;58088;51.186;17.130;2022-07-09T03:11:00;16.36;70.99
70534;SHT31;58088;51.186;17.130;2022-07-09T03:13:26;16.39;70.84
70534;SHT31;58088;51.186;17.130;2022-07-09T03:15:52;16.39;70.70
70534;SHT31;58088;51.186;17.130;2022-07-09T03:18:18;16.42;70.79
70534;SHT31;58088;51.186;17.130;2022-07-09T03:20:44;16.41;70.87
70534;SHT31;58088;51.186;17.130;2022-07-09T03:23:10;16.42;70.89
70534;SHT31;58088;51.186;17.130;2022-07-09T03:25:38;16.46;70.82
70534;SHT31;58088;51.186;17.130;2022-07-09T03:28:04;16.49;70.89
70534;SHT31;58088;51.186;17.130;2022-07-09T03:30:31;16.54;70.76
70534;SHT31;58088;51.186;17.130;2022-07-09T03:32:57;16.70;70.60
70534;SHT31;58088;51.186;17.130;2022-07-09T03:35:23;16.97;70.38
70534;SHT31;58088;51.186;17.130;2022-07-09T03:37:49;17.22;70.05
70534;SHT31;58088;51.186;17.130;2022-07-09T03:40:16;17.47;69.69
70534;SHT31;58088;51.186;17.130;2022-07-09T03:42:42;17.73;69.15
70534;SHT31;58088;51.186;17.130;2022-07-09T03:45:08;18.03;68.57
70534;SHT31;58088;51.186;17.130;2022-07-09T03:47:35;18.45;67.87
70534;SHT31;58088;51.186;17.130;2022-07-09T03:50:01;18.94;66.89
70534;SHT31;58088;51.186;17.130;2022-07-09T03:52:29;19.49;65.82
70534;SHT31;58088;51.186;17.130;2022-07-09T03:54:55;19.98;64.59
70534;SHT31;58088;51.186;17.130;2022-07-09T03:57:22;20.38;63.64
70534;SHT31;58088;51.186;17.130;2022-07-09T03:59:48;20.71;62.73
70534;SHT31;58088;51.186;17.130;2022-07-09T04:02:14;20.88;61.94
70534;SHT31;58088;51.186;17.130;2022-07-09T04:04:40;20.93;61.35
70534;SHT31;58088;51.186;17.130;2022-07-09T04:07:09;21.04;60.96
70534;SHT31;58088;51.186;17.130;2022-07-09T04:09:36;21.20;60.42
70534;SHT31;58088;51.186;17.130;2022-07-09T04:12:03;21.33;60.08
70534;SHT31;58088;51.186;17.130;2022-07-09T04:14:29;21.42;59.58
70534;SHT31;58088;51.186;17.130;2022-07-09T04:16:55;21.41;59.43
70534;SHT31;58088;51.186;17.130;2022-07-09T04:19:24;21.30;59.37
70534;SHT31;58088;51.186;17.130;2022-07-09T04:21:50;21.04;59.56
70534;SHT31;58088;51.186;17.130;2022-07-09T04:24:16;21.06;59.37
70534;SHT31;58088;51.186;17.130;2022-07-09T04:26:43;20.87;59.42
70534;SHT31;58088;51.186;17.130;2022-07-09T04:29:12;20.52;59.96
70534;SHT31;58088;51.186;17.130;2022-07-09T04:31:41;20.30;60.38
70534;SHT31;58088;51.186;17.130;2022-07-09T04:34:09;20.31;60.49
70534;SHT31;58088;51.186;17.130;2022-07-09T04:36:39;20.53;60.19
70534;SHT31;58088;51.186;17.130;2022-07-09T04:39:08;20.65;59.89
70534;SHT31;58088;51.186;17.130;2022-07-09T04:41:38;20.54;59.90
70534;SHT31;58088;51.186;17.130;2022-07-09T04:44:08;20.37;60.24
70534;SHT31;58088;51.186;17.130;2022-07-09T04:46:42;20.17;60.48
70534;SHT31;58088;51.186;17.130;2022-07-09T04:49:09;20.02;60.89
70534;SHT31;58088;51.186;17.130;2022-07-09T04:51:36;20.03;60.95
70534;SHT31;58088;51.186;17.130;2022-07-09T04:54:02;20.14;60.87
70534;SHT31;58088;51.186;17.130;2022-07-09T04:56:28;20.28;60.84
70534;SHT31;58088;51.186;17.130;2022-07-09T04:58:56;20.31;60.63
70534;SHT31;58088;51.186;17.130;2022-07-09T05:01:24;20.33;60.64
70534;SHT31;58088;51.186;17.130;2022-07-09T05:03:50;20.14;60.89
70534;SHT31;58088;51.186;17.130;2022-07-09T05:06:18;19.97;61.26
70534;SHT31;58088;51.186;17.130;2022-07-09T05:08:45;19.76;61.58
70534;SHT31;58088;51.186;17.130;2022-07-09T05:11:11;19.55;61.96
70534;SHT31;58088;51.186;17.130;2022-07-09T05:13:37;19.32;62.32
70534;SHT31;58088;51.186;17.130;2022-07-09T05:16:06;19.17;62.78
70534;SHT31;58088;51.186;17.130;2022-07-09T05:18:33;19.31;62.82
70534;SHT31;58088;51.186;17.130;2022-07-09T05:21:00;19.49;62.69
70534;SHT31;58088;51.186;17.130;2022-07-09T05:23:26;19.74;62.36
70534;SHT31;58088;51.186;17.130;2022-07-09T05:25:52;20.07;62.03
70534;SHT31;58088;51.186;17.130;2022-07-09T05:28:19;20.35;61.60
70534;SHT31;58088;51.186;17.130;2022-07-09T05:30:46;20.40;61.32
70534;SHT31;58088;51.186;17.130;2022-07-09T05:33:12;20.60;60.74
70534;SHT31;58088;51.186;17.130;2022-07-09T05:35:38;20.86;60.22
70534;SHT31;58088;51.186;17.130;2022-07-09T05:38:04;21.17;59.63
70534;SHT31;58088;51.186;17.130;2022-07-09T05:40:30;21.50;59.23
70534;SHT31;58088;51.186;17.130;2022-07-09T05:42:56;21.91;58.64
70534;SHT31;58088;51.186;17.130;2022-07-09T05:45:23;21.89;58.13
70534;SHT31;58088;51.186;17.130;2022-07-09T05:47:49;21.68;58.36
70534;SHT31;58088;51.186;17.130;2022-07-09T05:50:15;21.49;58.46
70534;SHT31;58088;51.186;17.130;2022-07-09T05:52:41;21.26;58.75
70534;SHT31;58088;51.186;17.130;2022-07-09T05:55:08;21.05;59.06
70534;SHT31;58088;51.186;17.130;2022-07-09T05:57:35;20.93;59.28
70534;SHT31;58088;51.186;17.130;2022-07-09T06:00:01;21.38;58.94
70534;SHT31;58088;51.186;17.130;2022-07-09T06:02:30;21.92;58.03
70534;SHT31;58088;51.186;17.130;2022-07-09T06:04:56;22.38;57.29
70534;SHT31;58088;51.186;17.130;2022-07-09T06:07:22;22.92;56.19
70534;SHT31;58088;51.186;17.130;2022-07-09T06:09:49;23.32;55.24
70534;SHT31;58088;51.186;17.130;2022-07-09T06:12:15;23.60;54.50
70534;SHT31;58088;51.186;17.130;2022-07-09T06:14:41;23.88;53.85
70534;SHT31;58088;51.186;17.130;2022-07-09T06:17:07;24.16;52.95
70534;SHT31;58088;51.186;17.130;2022-07-09T06:19:33;24.35;52.53
70534;SHT31;58088;51.186;17.130;2022-07-09T06:22:01;24.72;52.29
70534;SHT31;58088;51.186;17.130;2022-07-09T06:24:28;25.18;51.68
70534;SHT31;58088;51.186;17.130;2022-07-09T06:26:55;25.54;50.65
70534;SHT31;58088;51.186;17.130;2022-07-09T06:29:22;25.87;50.04
70534;SHT31;58088;51.186;17.130;2022-07-09T06:31:48;26.21;49.77
70534;SHT31;58088;51.186;17.130;2022-07-09T06:34:15;26.20;48.69
70534;SHT31;58088;51.186;17.130;2022-07-09T06:36:41;26.20;48.11
70534;SHT31;58088;51.186;17.130;2022-07-09T06:39:10;26.17;47.91
70534;SHT31;58088;51.186;17.130;2022-07-09T06:42:02;26.34;48.08
70534;SHT31;58088;51.186;17.130;2022-07-09T06:44:30;26.77;47.98
70534;SHT31;58088;51.186;17.130;2022-07-09T06:46:56;27.01;47.38
70534;SHT31;58088;51.186;17.130;2022-07-09T06:49:23;27.18;46.67
70534;SHT31;58088;51.186;17.130;2022-07-09T06:51:49;27.37;46.58
70534;SHT31;58088;51.186;17.130;2022-07-09T06:54:16;27.68;46.32
70534;SHT31;58088;51.186;17.130;2022-07-09T06:56:42;27.94;45.16
70534;SHT31;58088;51.186;17.130;2022-07-09T06:59:08;28.18;44.24
70534;SHT31;58088;51.186;17.130;2022-07-09T07:01:34;28.25;43.86
70534;SHT31;58088;51.186;17.130;2022-07-09T07:04:00;28.27;43.09
70534;SHT31;58088;51.186;17.130;2022-07-09T07:06:27;28.28;42.29
70534;SHT31;58088;51.186;17.130;2022-07-09T07:08:53;28.05;42.21
70534;SHT31;58088;51.186;17.130;2022-07-09T07:11:19;27.65;42.74
70534;SHT31;58088;51.186;17.130;2022-07-09T07:13:45;27.09;43.41
70534;SHT31;58088;51.186;17.130;2022-07-09T07:16:11;26.41;43.65
70534;SHT31;58088;51.186;17.130;2022-07-09T07:18:37;25.92;44.50
70534;SHT31;58088;51.186;17.130;2022-07-09T07:21:04;25.58;44.14
70534;SHT31;58088;51.186;17.130;2022-07-09T07:23:30;25.29;44.90
70534;SHT31;58088;51.186;17.130;2022-07-09T07:26:00;25.36;44.95
70534;SHT31;58088;51.186;17.130;2022-07-09T07:28:26;25.27;44.56
70534;SHT31;58088;51.186;17.130;2022-07-09T07:30:53;25.45;44.66
70534;SHT31;58088;51.186;17.130;2022-07-09T07:33:20;25.56;43.74
70534;SHT31;58088;51.186;17.130;2022-07-09T07:35:46;25.44;42.84
70534;SHT31;58088;51.186;17.130;2022-07-09T07:38:12;25.28;43.67
70534;SHT31;58088;51.186;17.130;2022-07-09T07:40:38;25.15;43.64
70534;SHT31;58088;51.186;17.130;2022-07-09T07:43:05;25.19;43.67
70534;SHT31;58088;51.186;17.130;2022-07-09T07:45:31;25.23;43.52
70534;SHT31;58088;51.186;17.130;2022-07-09T07:47:57;25.28;43.76
70534;SHT31;58088;51.186;17.130;2022-07-09T07:50:24;25.51;43.75
70534;SHT31;58088;51.186;17.130;2022-07-09T07:52:50;25.72;43.51
70534;SHT31;58088;51.186;17.130;2022-07-09T07:55:16;25.80;43.15
70534;SHT31;58088;51.186;17.130;2022-07-09T07:57:42;25.71;42.70
70534;SHT31;58088;51.186;17.130;2022-07-09T08:00:08;25.85;43.13
70534;SHT31;58088;51.186;17.130;2022-07-09T08:02:38;26.23;43.46
70534;SHT31;58088;51.186;17.130;2022-07-09T08:05:05;26.17;41.64
70534;SHT31;58088;51.186;17.130;2022-07-09T08:07:32;25.86;41.42
70534;SHT31;58088;51.186;17.130;2022-07-09T08:09:58;25.55;41.62
70534;SHT31;58088;51.186;17.130;2022-07-09T08:12:24;25.55;42.35
70534;SHT31;58088;51.186;17.130;2022-07-09T08:14:50;25.48;42.17
70534;SHT31;58088;51.186;17.130;2022-07-09T08:17:17;25.37;42.04
70534;SHT31;58088;51.186;17.130;2022-07-09T08:19:43;25.26;42.14
70534;SHT31;58088;51.186;17.130;2022-07-09T08:22:09;25.21;42.79
70534;SHT31;58088;51.186;17.130;2022-07-09T08:24:35;25.22;43.30
70534;SHT31;58088;51.186;17.130;2022-07-09T08:27:01;25.15;42.61
70534;SHT31;58088;51.186;17.130;2022-07-09T08:29:28;24.76;42.62
70534;SHT31;58088;51.186;17.130;2022-07-09T08:31:54;24.71;43.44
70534;SHT31;58088;51.186;17.130;2022-07-09T08:34:20;24.93;43.20
70534;SHT31;58088;51.186;17.130;2022-07-09T08:36:47;25.09;42.95
70534;SHT31;58088;51.186;17.130;2022-07-09T08:39:14;25.04;42.55
70534;SHT31;58088;51.186;17.130;2022-07-09T08:41:40;25.00;43.19
70534;SHT31;58088;51.186;17.130;2022-07-09T08:44:11;25.07;42.51
70534;SHT31;58088;51.186;17.130;2022-07-09T08:46:38;25.11;41.92
70534;SHT31;58088;51.186;17.130;2022-07-09T08:49:06;25.21;41.54
70534;SHT31;58088;51.186;17.130;2022-07-09T08:51:33;25.36;42.10
70534;SHT31;58088;51.186;17.130;2022-07-09T08:54:02;25.59;40.81
70534;SHT31;58088;51.186;17.130;2022-07-09T08:56:29;25.52;40.71
70534;SHT31;58088;51.186;17.130;2022-07-09T08:58:55;25.47;40.66
70534;SHT31;58088;51.186;17.130;2022-07-09T09:01:21;25.47;40.36
70534;SHT31;58088;51.186;17.130;2022-07-09T09:03:47;25.43;39.97
70534;SHT31;58088;51.186;17.130;2022-07-09T09:06:13;25.43;40.69
70534;SHT31;58088;51.186;17.130;2022-07-09T09:08:41;25.59;41.00
70534;SHT31;58088;51.186;17.130;2022-07-09T09:11:14;25.75;40.42
70534;SHT31;58088;51.186;17.130;2022-07-09T09:13:46;25.82;40.09
70534;SHT31;58088;51.186;17.130;2022-07-09T09:16:15;25.91;40.17
70534;SHT31;58088;51.186;17.130;2022-07-09T09:18:44;25.86;39.95
70534;SHT31;58088;51.186;17.130;2022-07-09T09:21:18;25.84;40.39
70534;SHT31;58088;51.186;17.130;2022-07-09T09:23:48;25.85;40.91
70534;SHT31;58088;51.186;17.130;2022-07-09T09:26:21;25.79;40.89
70534;SHT31;58088;51.186;17.130;2022-07-09T09:28:58;25.77;41.38
70534;SHT31;58088;51.186;17.130;2022-07-09T09:31:38;25.68;41.50
70534;SHT31;58088;51.186;17.130;2022-07-09T09:36:31;25.29;40.92
70534;SHT31;58088;51.186;17.130;2022-07-09T09:41:51;25.08;41.72
70534;SHT31;58088;51.186;17.130;2022-07-09T09:44:24;25.21;40.62
70534;SHT31;58088;51.186;17.130;2022-07-09T09:46:53;25.24;41.14
70534;SHT31;58088;51.186;17.130;2022-07-09T09:49:21;25.36;41.81
70534;SHT31;58088;51.186;17.130;2022-07-09T09:54:20;25.73;40.89
70534;SHT31;58088;51.186;17.130;2022-07-09T09:56:48;25.76;39.29
70534;SHT31;58088;51.186;17.130;2022-07-09T09:59:16;25.71;38.78
70534;SHT31;58088;51.186;17.130;2022-07-09T10:01:43;25.74;38.95
70534;SHT31;58088;51.186;17.130;2022-07-09T10:04:10;25.64;39.53
70534;SHT31;58088;51.186;17.130;2022-07-09T10:06:38;25.64;39.84
70534;SHT31;58088;51.186;17.130;2022-07-09T10:09:06;25.74;39.98
70534;SHT31;58088;51.186;17.130;2022-07-09T10:11:46;25.78;40.15
70534;SHT31;58088;51.186;17.130;2022-07-09T10:16:51;25.83;39.14
70534;SHT31;58088;51.186;17.130;2022-07-09T10:19:23;25.88;39.07
70534;SHT31;58088;51.186;17.130;2022-07-09T10:21:58;25.85;37.83
70534;SHT31;58088;51.186;17.130;2022-07-09T10:24:27;25.79;38.83
70534;SHT31;58088;51.186;17.130;2022-07-09T10:29:32;25.97;38.46
70534;SHT31;58088;51.186;17.130;2022-07-09T10:32:01;25.99;39.16
70534;SHT31;58088;51.186;17.130;2022-07-09T10:37:35;26.02;39.49
70534;SHT31;58088;51.186;17.130;2022-07-09T10:40:10;26.09;39.96
70534;SHT31;58088;51.186;17.130;2022-07-09T10:42:42;26.25;39.73
70534;SHT31;58088;51.186;17.130;2022-07-09T10:48:09;26.34;37.99
70534;SHT31;58088;51.186;17.130;2022-07-09T10:50:40;26.26;38.67
70534;SHT31;58088;51.186;17.130;2022-07-09T10:53:09;26.33;38.76
70534;SHT31;58088;51.186;17.130;2022-07-09T10:55:37;26.41;39.59
70534;SHT31;58088;51.186;17.130;2022-07-09T10:58:18;26.49;40.08
70534;SHT31;58088;51.186;17.130;2022-07-09T11:00:53;26.48;38.70
70534;SHT31;58088;51.186;17.130;2022-07-09T11:03:30;26.18;37.49
70534;SHT31;58088;51.186;17.130;2022-07-09T11:05:58;26.05;38.46
70534;SHT31;58088;51.186;17.130;2022-07-09T11:08:25;26.09;38.95
70534;SHT31;58088;51.186;17.130;2022-07-09T11:10:51;26.16;39.72
70534;SHT31;58088;51.186;17.130;2022-07-09T11:13:22;26.28;39.96
70534;SHT31;58088;51.186;17.130;2022-07-09T11:15:57;26.40;40.05
70534;SHT31;58088;51.186;17.130;2022-07-09T11:18:29;26.49;40.50
70534;SHT31;58088;51.186;17.130;2022-07-09T11:20:55;26.57;40.11
70534;SHT31;58088;51.186;17.130;2022-07-09T11:23:22;26.64;39.61
70534;SHT31;58088;51.186;17.130;2022-07-09T11:25:48;26.61;40.00
70534;SHT31;58088;51.186;17.130;2022-07-09T11:28:21;26.73;39.82
70534;SHT31;58088;51.186;17.130;2022-07-09T11:31:03;26.78;39.09
70534;SHT31;58088;51.186;17.130;2022-07-09T11:33:31;26.70;38.62
70534;SHT31;58088;51.186;17.130;2022-07-09T11:36:18;26.70;38.90
70534;SHT31;58088;51.186;17.130;2022-07-09T11:38:46;26.66;38.17
70534;SHT31;58088;51.186;17.130;2022-07-09T11:41:16;26.61;37.49
70534;SHT31;58088;51.186;17.130;2022-07-09T11:43:46;26.70;38.05
70534;SHT31;58088;51.186;17.130;2022-07-09T11:46:20;26.83;38.00
70534;SHT31;58088;51.186;17.130;2022-07-09T11:48:53;26.89;37.77
70534;SHT31;58088;51.186;17.130;2022-07-09T11:51:27;26.98;38.52
70534;SHT31;58088;51.186;17.130;2022-07-09T11:54:00;27.08;38.10
70534;SHT31;58088;51.186;17.130;2022-07-09T11:56:27;27.11;38.06
70534;SHT31;58088;51.186;17.130;2022-07-09T11:59:11;26.97;37.61
70534;SHT31;58088;51.186;17.130;2022-07-09T12:01:37;26.90;37.04
70534;SHT31;58088;51.186;17.130;2022-07-09T12:04:05;26.84;37.54
70534;SHT31;58088;51.186;17.130;2022-07-09T12:06:31;26.90;38.42
70534;SHT31;58088;51.186;17.130;2022-07-09T12:09:02;27.01;37.93
70534;SHT31;58088;51.186;17.130;2022-07-09T12:11:33;27.02;37.99
70534;SHT31;58088;51.186;17.130;2022-07-09T12:13:59;26.83;37.59
70534;SHT31;58088;51.186;17.130;2022-07-09T12:16:25;26.68;38.09
70534;SHT31;58088;51.186;17.130;2022-07-09T12:18:51;26.56;38.06
70534;SHT31;58088;51.186;17.130;2022-07-09T12:21:17;26.44;38.79
70534;SHT31;58088;51.186;17.130;2022-07-09T12:23:47;26.43;39.07
70534;SHT31;58088;51.186;17.130;2022-07-09T12:26:13;26.38;38.46
70534;SHT31;58088;51.186;17.130;2022-07-09T12:28:39;26.32;38.75
70534;SHT31;58088;51.186;17.130;2022-07-09T12:31:06;26.35;39.24
70534;SHT31;58088;51.186;17.130;2022-07-09T12:33:32;26.29;39.12
70534;SHT31;58088;51.186;17.130;2022-07-09T12:35:58;26.17;39.43
70534;SHT31;58088;51.186;17.130;2022-07-09T12:38:25;26.13;39.41
70534;SHT31;58088;51.186;17.130;2022-07-09T12:40:51;26.14;39.09
70534;SHT31;58088;51.186;17.130;2022-07-09T12:43:18;26.09;39.58
70534;SHT31;58088;51.186;17.130;2022-07-09T12:45:44;26.11;39.82
70534;SHT31;58088;51.186;17.130;2022-07-09T12:48:10;26.17;39.96
70534;SHT31;58088;51.186;17.130;2022-07-09T12:50:36;26.19;39.92
70534;SHT31;58088;51.186;17.130;2022-07-09T12:53:03;26.15;40.34
70534;SHT31;58088;51.186;17.130;2022-07-09T12:55:29;26.17;40.14
70534;SHT31;58088;51.186;17.130;2022-07-09T12:57:55;26.13;40.28
70534;SHT31;58088;51.186;17.130;2022-07-09T13:00:21;26.14;40.89
70534;SHT31;58088;51.186;17.130;2022-07-09T13:02:47;26.18;40.70
70534;SHT31;58088;51.186;17.130;2022-07-09T13:05:13;26.04;40.32
70534;SHT31;58088;51.186;17.130;2022-07-09T13:07:42;26.00;41.37
70534;SHT31;58088;51.186;17.130;2022-07-09T13:10:08;25.94;41.19
70534;SHT31;58088;51.186;17.130;2022-07-09T13:12:34;25.83;40.55
70534;SHT31;58088;51.186;17.130;2022-07-09T13:15:00;25.71;40.74
70534;SHT31;58088;51.186;17.130;2022-07-09T13:17:27;25.54;40.90
70534;SHT31;58088;51.186;17.130;2022-07-09T13:19:53;25.44;41.04
70534;SHT31;58088;51.186;17.130;2022-07-09T13:22:19;25.38;41.07
70534;SHT31;58088;51.186;17.130;2022-07-09T13:24:45;25.15;41.00
70534;SHT31;58088;51.186;17.130;2022-07-09T13:27:11;24.98;41.23
70534;SHT31;58088;51.186;17.130;2022-07-09T13:29:38;24.89;41.17
70534;SHT31;58088;51.186;17.130;2022-07-09T13:32:05;24.74;41.03
70534;SHT31;58088;51.186;17.130;2022-07-09T13:34:32;24.65;41.23
70534;SHT31;58088;51.186;17.130;2022-07-09T13:36:59;24.54;40.99
70534;SHT31;58088;51.186;17.130;2022-07-09T13:39:25;24.54;41.37
70534;SHT31;58088;51.186;17.130;2022-07-09T13:41:51;24.45;41.22
70534;SHT31;58088;51.186;17.130;2022-07-09T13:44:18;24.37;41.82
70534;SHT31;58088;51.186;17.130;2022-07-09T13:46:44;24.28;42.15
70534;SHT31;58088;51.186;17.130;2022-07-09T13:49:10;24.11;42.49
70534;SHT31;58088;51.186;17.130;2022-07-09T13:51:36;23.97;43.26
70534;SHT31;58088;51.186;17.130;2022-07-09T13:54:02;23.85;43.53
70534;SHT31;58088;51.186;17.130;2022-07-09T13:56:30;23.84;43.85
70534;SHT31;58088;51.186;17.130;2022-07-09T13:58:56;23.77;43.67
70534;SHT31;58088;51.186;17.130;2022-07-09T14:01:22;23.70;44.14
70534;SHT31;58088;51.186;17.130;2022-07-09T14:03:48;23.68;44.26
70534;SHT31;58088;51.186;17.130;2022-07-09T14:06:14;23.67;44.80
70534;SHT31;58088;51.186;17.130;2022-07-09T14:08:40;23.64;44.73
70534;SHT31;58088;51.186;17.130;2022-07-09T14:11:06;23.60;44.90
70534;SHT31;58088;51.186;17.130;2022-07-09T14:13:33;23.59;45.21
70534;SHT31;58088;51.186;17.130;2022-07-09T14:16:00;23.56;45.10
70534;SHT31;58088;51.186;17.130;2022-07-09T14:18:27;23.54;45.44
70534;SHT31;58088;51.186;17.130;2022-07-09T14:21:04;23.54;45.45
70534;SHT31;58088;51.186;17.130;2022-07-09T14:23:30;23.51;45.27
70534;SHT31;58088;51.186;17.130;2022-07-09T14:25:56;23.39;45.10
70534;SHT31;58088;51.186;17.130;2022-07-09T14:28:22;23.30;45.43
70534;SHT31;58088;51.186;17.130;2022-07-09T14:30:48;23.27;45.65
70534;SHT31;58088;51.186;17.130;2022-07-09T14:33:15;23.26;45.96
70534;SHT31;58088;51.186;17.130;2022-07-09T14:35:41;23.29;45.82
70534;SHT31;58088;51.186;17.130;2022-07-09T14:38:07;23.32;45.83
70534;SHT31;58088;51.186;17.130;2022-07-09T14:40:33;23.37;45.95
70534;SHT31;58088;51.186;17.130;2022-07-09T14:42:59;23.34;45.93
70534;SHT31;58088;51.186;17.130;2022-07-09T14:45:25;23.28;46.01
70534;SHT31;58088;51.186;17.130;2022-07-09T14:47:52;23.26;46.40
70534;SHT31;58088;51.186;17.130;2022-07-09T14:50:19;23.23;46.55
70534;SHT31;58088;51.186;17.130;2022-07-09T14:52:46;23.21;46.48
70534;SHT31;58088;51.186;17.130;2022-07-09T14:55:12;23.22;46.80
70534;SHT31;58088;51.186;17.130;2022-07-09T14:57:39;23.24;46.93
70534;SHT31;58088;51.186;17.130;2022-07-09T15:00:06;23.23;47.11
70534;SHT31;58088;51.186;17.130;2022-07-09T15:02:33;23.20;47.35
70534;SHT31;58088;51.186;17.130;2022-07-09T15:04:59;23.25;48.09
70534;SHT31;58088;51.186;17.130;2022-07-09T15:07:26;23.35;48.47
70534;SHT31;58088;51.186;17.130;2022-07-09T15:09:52;23.45;48.30
70534;SHT31;58088;51.186;17.130;2022-07-09T15:12:18;23.51;47.89
70534;SHT31;58088;51.186;17.130;2022-07-09T15:14:44;23.50;47.77
70534;SHT31;58088;51.186;17.130;2022-07-09T15:17:11;23.52;47.92
70534;SHT31;58088;51.186;17.130;2022-07-09T15:19:37;23.48;47.60
70534;SHT31;58088;51.186;17.130;2022-07-09T15:22:03;23.39;47.59
70534;SHT31;58088;51.186;17.130;2022-07-09T15:24:29;23.39;47.69
70534;SHT31;58088;51.186;17.130;2022-07-09T15:26:56;23.41;47.69
70534;SHT31;58088;51.186;17.130;2022-07-09T15:29:22;23.38;47.83
70534;SHT31;58088;51.186;17.130;2022-07-09T15:31:48;23.38;47.75
70534;SHT31;58088;51.186;17.130;2022-07-09T15:34:14;23.33;47.93